Latest Weather Observations for Darwin

IDD60801

Issued at 9:35 am CST Monday 22 September 2014 (issued every 30 minutes, with the page automatically refreshed every 10 minutes)

About weather observations | Map of weather stations | Latest weather observations for NT | Other Formats
Station Details ID: 014015 Name: DARWIN AIRPORT Lat: -12.42 Lon: 130.89 Height: 30.4 m
Data from the previous 72 hours. | See also: Recent months at Darwin
Date/Time
CST
Temp
°C
App
Temp
°C
Dew
Point
Rel
Hum
%
Delta-T
°C
Wind Press
QNH
hPa
Press
MSL
hPa
Rain
since 9 am
mm
Dir
 
Spd
km/h
Gust
km/h
Spd
kts
Gust
kts
22/09:30am 27.7 30.4 20.7 65 4.6 SSW 7 11 4 6 1016.2 - 0.0
22/09:00am 27.3 30.3 21.3 69 4.0 S 7 11 4 6 1016.0 1015.7 0.2
22/08:30am 26.5 29.4 21.7 75 3.2 SSE 9 11 5 6 1015.8 - 0.2
22/08:00am 25.4 28.6 21.6 79 2.5 SSE 7 9 4 5 1015.4 - 0.0
22/07:30am 24.4 27.3 21.7 85 1.8 SE 9 11 5 6 1015.1 - 0.0
22/07:00am 21.9 24.1 20.4 91 1.0 E 9 11 5 6 1014.5 - 0.0
22/06:30am 21.8 24.3 20.2 91 1.0 SE 7 7 4 4 1014.0 - 0.0
22/06:00am 22.9 25.5 20.4 86 1.6 S 7 9 4 5 1013.8 1013.5 0.0
22/05:30am 22.7 25.6 20.7 88 1.3 S 6 9 3 5 1013.2 - 0.0
22/05:00am 23.4 27.5 20.8 85 1.7 CALM 0 0 0 0 1013.2 - 0.0
22/04:30am 22.8 25.5 20.6 87 1.4 NE 7 11 4 6 1012.9 - 0.0
22/04:00am 22.7 25.3 20.5 87 1.4 NE 7 9 4 5 1012.9 - 0.0
22/03:30am 23.3 26.1 20.9 86 1.6 NE 7 9 4 5 1013.0 - 0.0
22/03:00am 23.1 25.9 20.8 87 1.5 NNE 7 9 4 5 1012.9 1012.6 0.0
22/02:30am 23.4 25.7 20.6 84 1.8 N 9 9 5 5 1012.9 - 0.0
22/02:00am 24.5 26.9 20.8 80 2.4 NNW 9 11 5 6 1013.0 - 0.0
22/01:30am 23.5 25.8 20.7 84 1.8 NNW 9 11 5 6 1013.2 - 0.0
22/01:00am 24.1 26.5 20.9 82 2.1 NNW 9 13 5 7 1013.6 - 0.0
22/12:30am 24.5 27.2 21.3 82 2.1 WNW 9 11 5 6 1014.2 - 0.0
22/12:00am 25.3 27.8 21.1 77 2.8 NW 9 11 5 6 1014.4 1014.1 0.0
 
Date/Time
CST
Temp
°C
App
Temp
°C
Dew
Point
Rel
Hum
%
Delta-T
°C
Wind Press
QNH
hPa
Press
MSL
hPa
Rain
since 9 am
mm
Dir
 
Spd
km/h
Gust
km/h
Spd
kts
Gust
kts
21/11:30pm 26.3 28.5 21.2 73 3.4 W 11 15 6 8 1014.6 - 0.0
21/11:00pm 26.3 28.5 21.2 73 3.4 W 11 15 6 8 1014.6 - 0.0
21/10:30pm 26.5 28.3 21.1 72 3.6 W 13 17 7 9 1014.6 - 0.0
21/10:00pm 26.6 28.0 21.0 71 3.7 W 15 20 8 11 1014.4 - 0.0
21/09:30pm 26.7 27.6 20.9 70 3.8 W 17 22 9 12 1013.9 - 0.0
21/09:00pm 26.8 27.3 20.9 70 3.9 W 19 24 10 13 1013.7 1013.4 0.0
21/08:30pm 26.9 27.3 21.0 70 3.9 W 20 26 11 14 1013.4 - 0.0
21/08:00pm 27.1 27.6 20.9 69 4.1 W 19 26 10 14 1013.1 - 0.0
21/07:30pm 27.6 27.9 20.3 64 4.8 W 19 24 10 13 1012.6 - 0.0
21/07:00pm 28.9 27.8 15.2 43 8.4 WNW 15 20 8 11 1012.3 - 0.0
21/06:30pm 29.4 28.9 15.0 41 8.8 NW 11 15 6 8 1011.8 - 0.0
21/06:00pm 30.3 29.1 14.1 37 9.8 WNW 13 17 7 9 1011.7 1011.4 0.0
21/05:30pm 30.7 29.4 14.9 38 9.7 NNW 15 20 8 11 1011.4 - 0.0
21/05:00pm 31.1 29.0 15.2 38 9.8 WNW 20 28 11 15 1011.2 - 0.0
21/04:30pm 30.9 28.9 16.4 41 9.1 WNW 22 28 12 15 1011.1 - 0.0
21/04:00pm 30.6 28.9 19.8 52 7.1 WNW 28 33 15 18 1011.1 - 0.0
21/03:30pm 30.5 29.0 20.2 54 6.8 NW 28 35 15 19 1011.1 - 0.0
21/03:00pm 31.2 30.0 20.0 51 7.4 NW 26 32 14 17 1011.2 1010.9 0.0
21/02:30pm 31.6 30.2 18.9 47 8.3 NW 24 32 13 17 1011.4 - 0.0
21/02:00pm 31.6 30.5 18.7 46 8.4 NW 22 28 12 15 1011.7 - 0.0
21/01:30pm 31.3 30.1 19.2 48 7.9 NW 24 30 13 16 1012.3 - 0.0
21/01:00pm 31.5 30.8 18.7 46 8.3 NW 20 28 11 15 1012.9 - 0.0
21/12:30pm 31.0 30.5 19.0 48 7.8 NW 20 28 11 15 1013.6 - 0.0
21/12:00pm 30.9 30.2 18.7 48 7.9 NW 20 26 11 14 1014.1 1013.8 0.0
21/11:30am 31.2 29.6 14.9 37 10.0 NW 17 26 9 14 1014.7 - 0.0
21/11:00am 31.2 30.5 16.4 41 9.3 NW 15 22 8 12 1015.0 - 0.0
21/10:30am 30.2 30.6 18.2 48 7.7 WSW 13 20 7 11 1015.4 - 0.0
21/10:00am 29.6 30.6 18.6 51 7.1 SW 11 15 6 8 1015.6 - 0.0
21/09:30am 28.8 30.0 18.3 53 6.7 SSW 9 13 5 7 1015.5 - 0.0
21/09:00am 27.4 29.6 21.2 69 4.1 SSW 11 15 6 8 1015.5 1015.2 0.0
21/08:30am 26.3 29.3 22.0 77 2.9 S 9 13 5 7 1015.2 - 0.0
21/08:00am 25.6 28.2 22.0 80 2.4 S 11 13 6 7 1015.1 - 0.0
21/07:30am 24.8 27.7 21.8 83 2.0 SSW 9 11 5 6 1014.7 - 0.0
21/07:00am 23.5 25.6 20.9 85 1.7 SSW 11 11 6 6 1014.3 - 0.0
21/06:30am 23.9 26.6 21.3 85 1.7 SSW 9 11 5 6 1014.0 - 0.0
21/06:00am 24.5 27.1 21.2 82 2.2 SW 9 11 5 6 1013.7 1013.4 0.0
21/05:30am 24.7 27.0 20.7 78 2.6 SW 9 11 5 6 1013.4 - 0.0
21/05:00am 24.6 26.7 20.1 76 2.9 W 9 11 5 6 1013.2 - 0.0
21/04:30am 24.3 26.2 20.5 79 2.5 W 11 13 6 7 1013.0 - 0.0
21/04:00am 25.0 26.5 20.6 76 2.9 WNW 13 15 7 8 1013.0 - 0.0
21/03:30am 25.2 26.2 20.3 74 3.2 WNW 15 19 8 10 1012.9 - 0.0
21/03:00am 25.8 26.9 20.5 72 3.5 NW 15 20 8 11 1012.8 1012.5 0.0
21/02:30am 25.9 27.3 21.1 75 3.2 NW 15 19 8 10 1013.0 - 0.0
21/02:00am 25.9 27.8 21.4 76 3.0 NW 13 17 7 9 1013.3 - 0.0
21/01:30am 25.6 27.6 21.5 78 2.7 W 13 17 7 9 1013.8 - 0.0
21/01:00am 25.7 28.1 21.6 78 2.7 W 11 17 6 9 1014.1 - 0.0
21/12:30am 25.9 28.4 21.7 77 2.8 W 11 15 6 8 1014.3 - 0.0
21/12:00am 26.1 28.5 21.6 76 3.0 W 11 15 6 8 1014.4 1014.1 0.0
 
Date/Time
CST
Temp
°C
App
Temp
°C
Dew
Point
Rel
Hum
%
Delta-T
°C
Wind Press
QNH
hPa
Press
MSL
hPa
Rain
since 9 am
mm
Dir
 
Spd
km/h
Gust
km/h
Spd
kts
Gust
kts
20/11:30pm 26.2 28.2 21.5 75 3.1 W 13 17 7 9 1014.5 - 0.0
20/11:00pm 26.3 28.8 21.8 76 3.0 W 11 15 6 8 1014.4 - 0.0
20/10:30pm 26.3 28.5 21.8 76 3.0 W 13 17 7 9 1014.2 - 0.0
20/10:00pm 26.7 28.4 21.6 73 3.4 W 15 19 8 10 1013.8 - 0.0
20/09:30pm 26.4 26.9 20.8 71 3.7 WNW 19 24 10 13 1013.4 - 0.0
20/09:00pm 24.9 25.8 16.2 58 5.3 E 6 7 3 4 1013.2 1012.9 0.0
20/08:30pm 26.7 27.8 15.6 50 6.8 SSE 4 7 2 4 1012.8 - 0.0
20/08:00pm 26.9 28.7 16.4 52 6.5 ESE 2 7 1 4 1012.4 - 0.0
20/07:30pm 27.9 27.5 16.1 48 7.3 NNE 13 17 7 9 1011.9 - 0.0
20/07:00pm 28.4 25.7 15.5 45 7.9 NNE 24 32 13 17 1011.1 - 0.0
20/06:30pm 29.4 26.7 14.6 40 9.0 NNE 22 32 12 17 1010.8 - 0.0
20/06:00pm 30.5 26.7 13.7 35 10.1 NNE 26 37 14 20 1010.2 1009.9 0.0
20/05:30pm 31.6 27.2 12.8 31 11.2 N 28 35 15 19 1009.6 - 0.0
20/05:00pm 32.8 27.7 12.0 28 12.3 NNE 30 39 16 21 1009.5 - 0.0
20/04:30pm 32.7 27.3 12.9 30 11.9 NNE 33 41 18 22 1009.5 - 0.0
20/04:00pm 33.3 28.3 13.3 29 12.1 N 32 41 17 22 1009.5 - 0.0
20/03:30pm 33.2 29.3 13.4 30 12.0 NNE 26 33 14 18 1010.1 - 0.0
20/03:00pm 31.7 29.4 18.4 45 8.6 N 28 35 15 19 1010.6 1010.3 0.0
20/02:30pm 31.6 30.2 19.6 49 7.9 N 26 35 14 19 1011.0 - 0.0
20/02:00pm 30.6 28.8 17.8 46 8.2 NNW 24 32 13 17 1011.7 - 0.0
20/01:30pm 31.8 29.6 17.0 41 9.4 NNW 24 33 13 18 1012.3 - 0.0
20/01:00pm 30.7 29.5 18.3 47 8.0 N 22 32 12 17 1012.9 - 0.0
20/12:30pm 34.6 32.2 11.4 24 13.7 WNW 15 22 8 12 1013.4 - 0.0
20/12:00pm 34.0 32.2 12.2 26 13.0 WNW 13 20 7 11 1014.1 1013.8 0.0
20/11:30am 32.9 31.5 12.1 28 12.3 WNW 11 19 6 10 1014.8 - 0.0
20/11:00am 32.2 31.0 12.7 30 11.6 W 11 19 6 10 1015.3 - 0.0
20/10:30am 30.6 32.5 18.9 49 7.6 S 7 11 4 6 1015.7 - 0.0
20/10:00am 29.6 31.2 18.2 50 7.3 S 7 11 4 6 1015.9 - 0.0
20/09:30am 28.4 30.8 20.0 60 5.5 NE 7 11 4 6 1015.9 - 0.0
20/09:00am 27.7 30.9 21.7 70 4.0 SSW 7 11 4 6 1015.6 1015.3 0.0
20/08:30am 26.7 29.9 22.4 77 2.9 SSE 9 13 5 7 1015.3 - 0.0
20/08:00am 25.4 28.7 22.6 84 1.9 SSE 9 9 5 5 1015.1 - 0.0
20/07:30am 23.8 27.1 21.8 88 1.3 S 7 9 4 5 1014.8 - 0.0
20/07:00am 21.7 25.8 20.8 95 0.6 CALM 0 0 0 0 1014.4 - 0.0
20/06:30am 21.5 25.4 20.4 93 0.7 CALM 0 0 0 0 1013.9 - 0.0
20/06:13am 21.3 25.1 20.1 93 0.8 CALM 0 0 0 0 1013.6 - 0.0
20/06:00am 21.4 25.4 20.5 95 0.6 CALM 0 6 0 3 1013.5 1013.2 0.0
20/05:30am 21.5 24.0 20.3 93 0.8 WNW 7 9 4 5 1013.3 - 0.0
20/05:00am 21.8 25.0 20.4 92 0.9 W 4 9 2 5 1013.2 - 0.0
20/04:30am 21.9 26.0 20.7 93 0.8 CALM 0 0 0 0 1013.2 - 0.0
20/04:00am 22.2 26.4 21.0 93 0.8 CALM 0 0 0 0 1013.5 - 0.0
20/03:30am 22.3 26.2 20.4 89 1.2 CALM 0 0 0 0 1013.5 - 0.0
20/03:00am 22.6 26.8 20.9 90 1.1 CALM 0 0 0 0 1013.6 1013.3 0.0
20/02:30am 22.9 26.7 20.9 88 1.3 NW 2 7 1 4 1013.9 - 0.0
20/02:00am 23.1 27.1 21.3 90 1.2 SSW 2 6 1 3 1014.3 - 0.0
20/01:30am 23.4 27.7 21.1 87 1.5 CALM 0 0 0 0 1014.7 - 0.0
20/01:00am 23.6 27.8 21.0 85 1.7 CALM 0 0 0 0 1015.0 - 0.0
20/12:30am 23.9 28.4 21.5 86 1.6 CALM 0 0 0 0 1015.3 - 0.0
20/12:00am 24.3 28.3 21.4 84 1.9 SW 2 7 1 4 1015.4 1015.1 0.0
 
Date/Time
CST
Temp
°C
App
Temp
°C
Dew
Point
Rel
Hum
%
Delta-T
°C
Wind Press
QNH
hPa
Press
MSL
hPa
Rain
since 9 am
mm
Dir
 
Spd
km/h
Gust
km/h
Spd
kts
Gust
kts
19/11:30pm 25.0 28.3 21.5 81 2.3 SSW 6 7 3 4 1015.6 - 0.0
19/11:00pm 26.0 29.3 21.8 77 2.8 SW 7 9 4 5 1015.5 - 0.0
19/10:30pm 26.1 29.0 21.8 77 2.9 WSW 9 13 5 7 1015.2 - 0.0
19/10:00pm 26.0 28.0 21.5 76 3.0 W 13 15 7 8 1014.8 - 0.0
19/09:30pm 26.4 28.2 21.1 72 3.5 WNW 13 17 7 9 1014.5 - 0.0
19/09:00pm 26.6 29.2 21.2 72 3.6 SSW 9 11 5 6 1013.9 1013.6 0.0
19/08:30pm 26.9 28.3 20.3 67 4.3 SSW 13 17 7 9 1013.4 - 0.0
19/08:00pm 27.4 28.9 19.7 63 5.0 SSW 11 13 6 7 1013.0 - 0.0
19/07:30pm 28.0 29.0 19.4 59 5.6 WSW 13 15 7 8 1012.6 - 0.0
19/07:00pm 28.5 28.8 18.7 55 6.3 WSW 15 19 8 10 1012.2 - 0.0
19/06:30pm 29.8 27.9 14.1 38 9.5 NW 17 20 9 11 1011.6 - 0.0
19/06:00pm 30.4 27.9 14.0 36 9.9 WNW 20 28 11 15 1011.0 1010.7 0.0
19/05:30pm 30.7 28.4 14.7 37 9.8 WNW 20 26 11 14 1010.5 - 0.0
19/05:00pm 31.5 29.0 15.1 37 10.1 WNW 22 28 12 15 1010.5 - 0.0
19/04:30pm 32.8 29.0 11.0 26 12.7 NNW 22 30 12 16 1010.3 - 0.0
19/04:00pm 32.8 30.9 15.3 34 10.9 N 19 26 10 14 1010.4 - 0.0
19/03:30pm 31.6 28.7 15.1 36 10.2 N 24 33 13 18 1010.8 - 0.0
19/03:00pm 32.4 29.2 15.3 35 10.6 N 26 37 14 20 1011.1 1010.8 0.0
19/02:30pm 32.9 29.0 15.6 35 10.8 N 30 48 16 26 1011.2 - 0.0
19/02:27pm 32.7 28.7 15.1 34 10.9 N 30 48 16 26 1011.2 - 0.0
19/02:00pm 34.0 29.9 15.0 32 11.8 NNW 30 37 16 20 1011.8 - 0.0
19/01:56pm 34.2 29.9 15.5 32 11.7 NNW 32 37 17 20 1011.7 - 0.0
19/01:30pm 36.3 31.7 -0.9 9 18.3 WNW 13 17 7 9 1012.1 - 0.0
19/01:00pm 35.9 31.7 1.6 11 17.5 NW 13 19 7 10 1012.7 - 0.0
19/12:30pm 35.0 31.5 3.4 14 16.5 WNW 11 20 6 11 1013.4 - 0.0
19/12:00pm 34.0 30.3 4.5 16 15.6 NNE 13 19 7 10 1014.1 1013.8 0.0
19/11:30am 33.9 29.9 9.1 21 14.1 NE 20 30 11 16 1014.7 - 0.0
19/11:00am 31.5 30.8 15.5 38 9.9 SE 13 20 7 11 1015.4 - 0.0
19/10:30am 30.7 30.0 15.3 39 9.5 ESE 13 20 7 11 1015.9 - 0.0
19/10:00am 29.8 30.9 17.1 46 8.0 SSE 7 13 4 7 1016.1 - 0.0

Other Formats:

Comma delimited format used in spreadsheet applications
http://www.bom.gov.au/fwo/IDD60801/IDD60801.94120.axf

JavaScript Object Notation format (JSON) in row-major order
http://www.bom.gov.au/fwo/IDD60801/IDD60801.94120.json